createdAt,value
2022-09-26T00:00:14.591Z,100.00
2022-09-26T00:02:45.697Z,100.00
2022-09-26T00:05:16.429Z,100.00
2022-09-26T00:07:46.810Z,100.00
2022-09-26T00:10:17.352Z,100.00
2022-09-26T00:12:47.740Z,100.00
2022-09-26T00:15:18.135Z,100.00
2022-09-26T00:17:48.484Z,100.00
2022-09-26T00:20:18.948Z,100.00
2022-09-26T00:22:49.400Z,100.00
2022-09-26T00:25:20.487Z,100.00
2022-09-26T00:27:50.793Z,100.00
2022-09-26T00:30:21.171Z,100.00
2022-09-26T00:32:52.112Z,100.00
2022-09-26T00:35:22.521Z,100.00
2022-09-26T00:37:52.866Z,100.00
2022-09-26T00:40:27.986Z,100.00
2022-09-26T00:42:59.167Z,100.00
2022-09-26T00:45:33.257Z,100.00
2022-09-26T00:48:06.669Z,100.00
2022-09-26T00:50:41.374Z,100.00
2022-09-26T00:53:15.117Z,100.00
2022-09-26T00:55:49.592Z,100.00
2022-09-26T00:58:23.489Z,100.00
2022-09-26T01:00:54.987Z,100.00
2022-09-26T01:03:27.713Z,100.00
2022-09-26T01:06:00.259Z,100.00
2022-09-26T01:08:34.229Z,100.00
2022-09-26T01:11:05.902Z,100.00
2022-09-26T01:13:39.460Z,100.00
2022-09-26T01:16:10.348Z,100.00
2022-09-26T01:18:41.672Z,100.00
2022-09-26T01:21:30.429Z,100.00
2022-09-26T01:24:36.059Z,100.00
2022-09-26T01:27:44.886Z,100.00
2022-09-26T01:30:18.062Z,100.00
2022-09-26T01:33:25.608Z,100.00
2022-09-26T01:36:12.247Z,100.00
2022-09-26T01:38:53.747Z,100.00
2022-09-26T01:41:45.291Z,100.00
2022-09-26T01:44:28.128Z,100.00
2022-09-26T01:47:02.113Z,100.00
2022-09-26T01:49:37.540Z,100.00
2022-09-26T01:52:15.017Z,100.00
2022-09-26T01:54:54.289Z,100.00
2022-09-26T01:57:30.979Z,100.00
2022-09-26T02:00:05.170Z,100.00
2022-09-26T02:02:47.935Z,100.00
2022-09-26T02:05:32.585Z,100.00
2022-09-26T02:08:08.455Z,100.00
2022-09-26T02:10:45.041Z,100.00
2022-09-26T02:13:19.720Z,100.00
2022-09-26T02:15:58.897Z,100.00
2022-09-26T02:18:37.524Z,100.00
2022-09-26T02:21:15.711Z,100.00
2022-09-26T02:23:47.581Z,100.00
2022-09-26T02:26:18.833Z,100.00
2022-09-26T02:28:49.686Z,100.00
2022-09-26T02:31:24.624Z,100.00
2022-09-26T02:33:56.474Z,100.00
2022-09-26T02:36:27.451Z,100.00
2022-09-26T02:38:57.720Z,100.00
2022-09-26T02:41:53.615Z,100.00
2022-09-26T02:44:47.668Z,100.00
2022-09-26T02:47:36.594Z,100.00
2022-09-26T02:50:22.270Z,100.00
2022-09-26T02:53:06.378Z,100.00
2022-09-26T02:55:49.055Z,100.00
2022-09-26T02:58:36.021Z,100.00
2022-09-26T03:01:16.039Z,100.00
2022-09-26T03:03:52.192Z,100.00
2022-09-26T03:06:31.666Z,100.00
2022-09-26T03:09:04.485Z,100.00
2022-09-26T03:11:37.002Z,100.00
2022-09-26T03:14:08.638Z,100.00
2022-09-26T03:16:45.139Z,100.00
2022-09-26T03:19:26.846Z,100.00
2022-09-26T03:21:57.611Z,100.00
2022-09-26T03:24:28.368Z,100.00
2022-09-26T03:27:05.084Z,100.00
2022-09-26T03:29:39.485Z,100.00
2022-09-26T03:32:11.098Z,100.00
2022-09-26T03:34:41.868Z,100.00
2022-09-26T03:37:12.381Z,100.00
2022-09-26T03:39:42.904Z,100.00
2022-09-26T03:42:22.893Z,100.00
2022-09-26T03:44:53.647Z,100.00
2022-09-26T03:47:32.853Z,100.00
2022-09-26T03:50:03.930Z,100.00
2022-09-26T03:52:36.049Z,100.00
2022-09-26T03:55:05.804Z,100.00
2022-09-26T03:57:36.285Z,100.00
2022-09-26T04:00:17.766Z,100.00
2022-09-26T04:02:48.884Z,100.00
2022-09-26T04:05:34.545Z,100.00
2022-09-26T04:08:05.821Z,100.00
2022-09-26T04:10:37.218Z,100.00
2022-09-26T04:13:08.962Z,100.00
2022-09-26T04:15:40.433Z,100.00
2022-09-26T04:18:15.066Z,100.00
2022-09-26T04:20:45.576Z,100.00
2022-09-26T04:23:17.653Z,100.00
2022-09-26T04:25:48.511Z,100.00
2022-09-26T04:28:18.952Z,100.00
2022-09-26T04:30:50.327Z,100.00
2022-09-26T04:33:21.227Z,100.00
2022-09-26T04:36:09.432Z,100.00
2022-09-26T04:38:41.013Z,100.00
2022-09-26T04:41:15.361Z,100.00
2022-09-26T04:43:45.958Z,100.00
2022-09-26T04:46:22.217Z,100.00
2022-09-26T04:48:56.150Z,100.00
2022-09-26T04:51:28.715Z,100.00
2022-09-26T04:53:59.581Z,100.00
2022-09-26T04:56:32.043Z,100.00
2022-09-26T04:59:02.971Z,100.00
2022-09-26T05:01:40.954Z,100.00
2022-09-26T05:04:18.685Z,100.00
2022-09-26T05:06:49.840Z,100.00
2022-09-26T05:09:30.795Z,100.00
2022-09-26T05:12:17.261Z,100.00
2022-09-26T05:14:49.170Z,100.00
2022-09-26T05:17:24.352Z,100.00
2022-09-26T05:19:55.776Z,100.00
2022-09-26T05:22:35.518Z,100.00
2022-09-26T05:25:23.889Z,100.00
2022-09-26T05:27:54.434Z,100.00
2022-09-26T05:30:25.844Z,100.00
2022-09-26T05:32:58.303Z,100.00
2022-09-26T05:35:29.009Z,100.00
2022-09-26T05:38:03.355Z,100.00
2022-09-26T05:40:51.644Z,100.00
2022-09-26T05:43:22.785Z,100.00
2022-09-26T05:45:58.989Z,100.00
2022-09-26T05:48:32.291Z,100.00
2022-09-26T05:51:09.100Z,100.00
2022-09-26T05:53:43.189Z,100.00
2022-09-26T05:56:18.768Z,100.00
2022-09-26T05:59:12.045Z,100.00
2022-09-26T06:01:52.039Z,100.00
2022-09-26T06:04:31.606Z,100.00
2022-09-26T06:07:31.901Z,100.00
2022-09-26T06:10:06.400Z,100.00
2022-09-26T06:12:46.442Z,100.00
2022-09-26T06:15:19.685Z,100.00
2022-09-26T06:17:58.070Z,100.00
2022-09-26T06:20:28.511Z,100.00
2022-09-26T06:22:59.140Z,100.00
2022-09-26T06:25:30.347Z,100.00
2022-09-26T06:28:04.121Z,100.00
2022-09-26T06:30:34.762Z,100.00
2022-09-26T06:33:13.599Z,100.00
2022-09-26T06:36:13.930Z,100.00
2022-09-26T06:38:44.303Z,100.00
2022-09-26T06:41:19.563Z,100.00
2022-09-26T06:43:50.325Z,100.00
2022-09-26T06:46:23.529Z,100.00
2022-09-26T06:49:00.023Z,100.00
2022-09-26T06:51:44.967Z,100.00
2022-09-26T06:54:14.664Z,100.00
2022-09-26T06:56:45.075Z,100.00
2022-09-26T06:59:16.993Z,100.00
2022-09-26T07:02:12.605Z,100.00
2022-09-26T07:05:02.776Z,100.00
2022-09-26T07:07:46.736Z,100.00
2022-09-26T07:10:25.966Z,100.00
2022-09-26T07:13:08.105Z,100.00
2022-09-26T07:15:40.114Z,100.00
2022-09-26T07:18:33.717Z,100.00
2022-09-26T07:21:08.334Z,100.00
2022-09-26T07:23:57.145Z,100.00
2022-09-26T07:26:27.647Z,100.00
2022-09-26T07:28:57.496Z,100.00
2022-09-26T07:31:31.030Z,100.00
2022-09-26T07:34:25.184Z,99.97
2022-09-26T07:36:55.775Z,99.98
2022-09-26T07:39:27.335Z,99.44
2022-09-26T07:41:58.166Z,99.60
2022-09-26T07:47:36.931Z,99.79
2022-09-26T07:50:15.175Z,99.33
2022-09-26T07:53:04.509Z,97.88
2022-09-26T07:55:54.991Z,97.76
2022-09-26T07:58:43.930Z,98.38
2022-09-26T08:01:47.069Z,98.99
2022-09-26T08:04:51.353Z,98.34
2022-09-26T08:07:23.921Z,96.39
2022-09-26T08:10:07.690Z,96.32
2022-09-26T08:13:07.109Z,95.87
2022-09-26T08:15:45.486Z,94.87
2022-09-26T08:18:25.132Z,94.95
2022-09-26T08:20:55.569Z,94.80
2022-09-26T08:23:26.221Z,95.51
2022-09-26T08:26:23.986Z,94.66
2022-09-26T08:29:01.662Z,95.45
2022-09-26T08:31:33.548Z,95.38
2022-09-26T08:34:04.193Z,95.59
2022-09-26T08:36:35.965Z,94.67
2022-09-26T08:39:10.963Z,93.92
2022-09-26T08:42:18.119Z,94.20
2022-09-26T08:45:50.577Z,93.80
2022-09-26T08:48:53.281Z,93.62
2022-09-26T08:51:34.483Z,93.75
2022-09-26T08:54:12.244Z,92.80
2022-09-26T08:56:49.751Z,92.13
2022-09-26T08:59:29.847Z,89.29
2022-09-26T09:02:05.294Z,88.85
2022-09-26T09:04:57.614Z,86.55
2022-09-26T09:07:29.233Z,86.31
2022-09-26T09:10:02.320Z,85.81
2022-09-26T09:13:01.216Z,84.33
2022-09-26T09:16:01.133Z,85.36
2022-09-26T09:19:00.185Z,86.72
2022-09-26T09:22:16.406Z,85.59
2022-09-26T09:25:04.821Z,82.96
2022-09-26T09:27:54.438Z,82.51
2022-09-26T09:30:32.292Z,83.27
2022-09-26T09:33:22.183Z,81.05
2022-09-26T09:36:04.135Z,79.22
2022-09-26T09:38:43.665Z,78.04
2022-09-26T09:41:28.383Z,77.75
2022-09-26T09:44:03.956Z,76.66
2022-09-26T09:46:40.816Z,77.02
2022-09-26T09:49:21.219Z,75.68
2022-09-26T09:52:05.402Z,74.11
2022-09-26T09:54:50.258Z,74.44
2022-09-26T09:57:44.483Z,73.67
2022-09-26T10:00:18.703Z,72.57
2022-09-26T10:03:02.667Z,73.77
2022-09-26T10:05:42.627Z,74.50
2022-09-26T10:08:17.517Z,73.80
2022-09-26T10:11:23.208Z,74.30
2022-09-26T10:14:06.051Z,72.60
2022-09-26T10:17:18.873Z,70.93
2022-09-26T10:20:37.109Z,70.91
2022-09-26T10:23:19.320Z,70.85
2022-09-26T10:25:53.288Z,70.36
2022-09-26T10:28:35.836Z,69.28
2022-09-26T10:31:10.644Z,70.31
2022-09-26T10:34:09.705Z,69.25
2022-09-26T10:36:41.690Z,69.64
2022-09-26T10:39:38.784Z,69.21
2022-09-26T10:42:17.808Z,67.85
2022-09-26T10:44:50.537Z,68.03
2022-09-26T10:47:27.113Z,69.74
2022-09-26T10:50:19.404Z,70.39
2022-09-26T10:53:17.391Z,70.23
2022-09-26T10:55:57.609Z,68.62
2022-09-26T10:58:30.418Z,69.30
2022-09-26T11:01:07.180Z,69.25
2022-09-26T11:03:45.072Z,69.18
2022-09-26T11:06:33.988Z,68.15
2022-09-26T11:09:20.655Z,67.05
2022-09-26T11:12:29.251Z,66.21
2022-09-26T11:15:10.851Z,65.18
2022-09-26T11:17:49.090Z,66.10
2022-09-26T11:20:30.168Z,63.87
2022-09-26T11:23:12.255Z,62.35
2022-09-26T11:25:57.730Z,60.04
2022-09-26T11:28:36.569Z,58.61
2022-09-26T11:31:31.269Z,59.33
2022-09-26T11:34:26.986Z,59.81
2022-09-26T11:37:37.773Z,60.62
2022-09-26T11:40:21.882Z,61.40
2022-09-26T11:43:10.063Z,60.56
2022-09-26T11:45:54.275Z,60.41
2022-09-26T11:48:55.744Z,58.69
2022-09-26T11:52:02.177Z,56.22
2022-09-26T11:54:50.824Z,57.48
2022-09-26T11:57:35.649Z,56.31
2022-09-26T12:00:24.206Z,55.24
2022-09-26T12:03:17.367Z,53.27
2022-09-26T12:05:56.715Z,52.78
2022-09-26T12:08:47.674Z,50.58
2022-09-26T12:11:27.309Z,50.45
2022-09-26T12:14:05.812Z,49.06
2022-09-26T12:16:42.385Z,49.82
2022-09-26T12:19:21.496Z,50.94
2022-09-26T12:22:18.553Z,50.05
2022-09-26T12:24:58.837Z,50.72
2022-09-26T12:27:35.953Z,49.00
2022-09-26T12:30:13.102Z,49.11
2022-09-26T12:33:05.727Z,47.35
2022-09-26T12:35:48.046Z,46.42
2022-09-26T12:38:33.401Z,46.49
2022-09-26T12:41:19.993Z,46.85
2022-09-26T12:44:06.184Z,47.62
2022-09-26T12:47:00.071Z,47.82
2022-09-26T12:49:55.243Z,47.89
2022-09-26T12:52:41.324Z,47.72
2022-09-26T12:55:23.405Z,47.89
2022-09-26T12:58:09.541Z,47.20
2022-09-26T13:00:50.616Z,48.07
2022-09-26T13:03:52.041Z,49.30
2022-09-26T13:06:35.316Z,50.61
2022-09-26T13:09:21.784Z,50.88
2022-09-26T13:12:04.226Z,52.28
2022-09-26T13:14:50.809Z,54.79
2022-09-26T13:17:25.307Z,58.13
2022-09-26T13:20:01.480Z,62.26
2022-09-26T13:22:40.151Z,66.92
2022-09-26T13:25:19.036Z,68.87
2022-09-26T13:27:57.986Z,71.35
2022-09-26T13:30:35.591Z,72.62
2022-09-26T13:33:11.758Z,73.87
2022-09-26T13:35:45.303Z,73.82
2022-09-26T13:38:34.683Z,75.99
2022-09-26T13:41:17.979Z,74.16
2022-09-26T13:44:03.519Z,75.09
2022-09-26T13:46:51.064Z,76.15
2022-09-26T13:49:45.206Z,75.41
2022-09-26T13:52:27.620Z,74.54
2022-09-26T13:55:02.908Z,75.71
2022-09-26T13:57:39.680Z,76.00
2022-09-26T14:00:41.444Z,76.22
2022-09-26T14:03:45.897Z,76.87
2022-09-26T14:06:35.809Z,77.41
2022-09-26T14:09:40.582Z,76.08
2022-09-26T14:12:22.661Z,75.09
2022-09-26T14:15:17.341Z,75.06
2022-09-26T14:18:16.345Z,76.19
2022-09-26T14:21:01.640Z,76.39
2022-09-26T14:23:44.407Z,74.84
2022-09-26T14:26:22.045Z,75.78
2022-09-26T14:29:11.897Z,75.71
2022-09-26T14:31:43.949Z,75.39
2022-09-26T14:34:23.607Z,74.02
2022-09-26T14:37:03.587Z,73.14
2022-09-26T14:39:44.457Z,72.22
2022-09-26T14:42:23.857Z,70.47
2022-09-26T14:44:59.753Z,70.12
2022-09-26T14:47:41.199Z,68.56
2022-09-26T14:50:15.630Z,69.64
2022-09-26T14:52:54.382Z,70.26
2022-09-26T14:55:26.766Z,71.50
2022-09-26T14:58:30.492Z,71.78
2022-09-26T15:01:04.947Z,71.37
2022-09-26T15:03:36.968Z,70.04
2022-09-26T15:06:13.521Z,69.80
2022-09-26T15:08:44.185Z,70.36
2022-09-26T15:11:32.630Z,69.83
2022-09-26T15:14:12.954Z,71.16
2022-09-26T15:16:50.009Z,70.75
2022-09-26T15:19:26.086Z,70.44
2022-09-26T15:22:01.649Z,69.78
2022-09-26T15:24:34.485Z,68.79
2022-09-26T15:27:12.436Z,68.66
2022-09-26T15:29:47.520Z,68.73
2022-09-26T15:32:25.632Z,70.12
2022-09-26T15:34:57.719Z,71.02
2022-09-26T15:37:31.943Z,71.96
2022-09-26T15:40:16.800Z,72.34
2022-09-26T15:43:01.752Z,72.55
2022-09-26T15:45:34.268Z,72.07
2022-09-26T15:48:27.385Z,72.50
2022-09-26T15:51:01.560Z,72.43
2022-09-26T15:53:39.485Z,71.79
2022-09-26T15:56:14.291Z,72.11
2022-09-26T15:58:51.529Z,71.69
2022-09-26T16:01:25.697Z,72.18
2022-09-26T16:04:01.279Z,72.42
2022-09-26T16:06:35.097Z,73.08
2022-09-26T16:09:17.610Z,73.60
2022-09-26T16:11:51.826Z,74.44
2022-09-26T16:14:30.933Z,75.09
2022-09-26T16:17:12.914Z,75.25
2022-09-26T16:19:48.593Z,75.36
2022-09-26T16:22:44.928Z,75.39
2022-09-26T16:25:34.485Z,75.87
2022-09-26T16:28:45.090Z,76.26
2022-09-26T16:31:31.379Z,77.03
2022-09-26T16:34:02.417Z,77.23
2022-09-26T16:36:35.272Z,77.24
2022-09-26T16:39:08.973Z,77.30
2022-09-26T16:42:02.325Z,77.42
2022-09-26T16:44:37.556Z,78.13
2022-09-26T16:47:38.512Z,78.45
2022-09-26T16:50:29.732Z,79.13
2022-09-26T16:53:02.925Z,80.08
2022-09-26T16:55:37.472Z,80.14
2022-09-26T16:58:14.045Z,80.45
2022-09-26T17:01:02.449Z,80.41
2022-09-26T17:03:36.206Z,80.73
2022-09-26T17:06:07.520Z,81.03
2022-09-26T17:08:38.028Z,81.05
2022-09-26T17:11:31.079Z,81.24
2022-09-26T17:14:01.694Z,81.19
2022-09-26T17:16:34.347Z,80.90
2022-09-26T17:19:07.326Z,80.29
2022-09-26T17:21:38.665Z,80.36
2022-09-26T17:24:13.859Z,80.29
2022-09-26T17:26:53.154Z,80.62
2022-09-26T17:29:27.766Z,80.58
2022-09-26T17:32:00.203Z,80.58
2022-09-26T17:34:34.835Z,80.18
2022-09-26T17:37:09.991Z,80.23
2022-09-26T17:39:41.234Z,80.16
2022-09-26T17:42:15.550Z,80.09
2022-09-26T17:44:48.479Z,79.82
2022-09-26T17:47:20.372Z,79.47
2022-09-26T17:49:56.324Z,79.33
2022-09-26T17:52:31.283Z,79.48
2022-09-26T17:55:05.977Z,78.70
2022-09-26T17:57:41.534Z,78.97
2022-09-26T18:00:16.511Z,79.05
2022-09-26T18:02:50.300Z,79.39
2022-09-26T18:05:25.614Z,79.31
2022-09-26T18:08:01.150Z,80.26
2022-09-26T18:10:34.963Z,81.41
2022-09-26T18:13:13.308Z,83.09
2022-09-26T18:15:44.243Z,84.91
2022-09-26T18:18:18.085Z,86.64
2022-09-26T18:20:49.333Z,87.41
2022-09-26T18:23:20.758Z,88.72
2022-09-26T18:25:54.824Z,89.65
2022-09-26T18:28:26.703Z,91.86
2022-09-26T18:31:00.799Z,92.01
2022-09-26T18:33:37.164Z,93.31
2022-09-26T18:36:12.958Z,94.23
2022-09-26T18:38:43.703Z,94.39
2022-09-26T18:41:15.841Z,95.65
2022-09-26T18:43:50.897Z,97.81
2022-09-26T18:46:22.877Z,98.53
2022-09-26T18:48:56.691Z,98.86
2022-09-26T18:51:28.140Z,99.30
2022-09-26T18:53:57.134Z,100.00
2022-09-26T18:56:45.483Z,100.00
2022-09-26T18:59:16.852Z,100.00
2022-09-26T19:01:46.237Z,100.00
2022-09-26T19:04:21.431Z,100.00
2022-09-26T19:07:01.003Z,100.00
2022-09-26T19:09:35.137Z,100.00
2022-09-26T19:12:15.421Z,100.00
2022-09-26T19:14:46.450Z,100.00
2022-09-26T19:17:17.462Z,100.00
2022-09-26T19:19:48.783Z,100.00
2022-09-26T19:22:20.337Z,100.00
2022-09-26T19:24:54.871Z,100.00
2022-09-26T19:27:28.400Z,100.00
2022-09-26T19:30:02.787Z,100.00
2022-09-26T19:32:38.943Z,100.00
2022-09-26T19:35:18.626Z,100.00
2022-09-26T19:37:49.260Z,100.00
2022-09-26T19:40:22.118Z,100.00
2022-09-26T19:42:53.319Z,100.00
2022-09-26T19:45:24.479Z,100.00
2022-09-26T19:47:57.209Z,100.00
2022-09-26T19:50:29.140Z,100.00
2022-09-26T19:53:00.173Z,100.00
2022-09-26T19:55:32.486Z,100.00
2022-09-26T19:58:12.284Z,100.00
2022-09-26T20:00:44.643Z,100.00
2022-09-26T20:03:20.253Z,100.00
2022-09-26T20:05:51.799Z,100.00
2022-09-26T20:08:23.959Z,100.00
2022-09-26T20:10:55.755Z,100.00
2022-09-26T20:13:26.506Z,100.00
2022-09-26T20:15:58.130Z,100.00
2022-09-26T20:18:28.913Z,100.00
2022-09-26T20:20:59.821Z,100.00
2022-09-26T20:23:31.217Z,100.00
2022-09-26T20:26:00.261Z,100.00
2022-09-26T20:28:31.112Z,100.00
2022-09-26T20:31:01.750Z,100.00
2022-09-26T20:33:33.371Z,100.00
2022-09-26T20:36:06.754Z,100.00
2022-09-26T20:38:42.233Z,100.00
2022-09-26T20:41:19.560Z,100.00
2022-09-26T20:43:53.704Z,100.00
2022-09-26T20:46:24.378Z,100.00
2022-09-26T20:48:55.042Z,100.00
2022-09-26T20:51:28.250Z,100.00
2022-09-26T20:53:59.561Z,100.00
2022-09-26T20:56:30.706Z,100.00
2022-09-26T20:59:01.309Z,100.00
2022-09-26T21:01:32.084Z,100.00
2022-09-26T21:04:03.351Z,100.00
2022-09-26T21:06:37.287Z,100.00
2022-09-26T21:09:11.887Z,100.00
2022-09-26T21:11:42.703Z,100.00
2022-09-26T21:14:13.570Z,100.00
2022-09-26T21:16:47.831Z,100.00
2022-09-26T21:19:22.968Z,100.00
2022-09-26T21:21:57.623Z,100.00
2022-09-26T21:24:38.727Z,100.00
2022-09-26T21:27:12.826Z,100.00
2022-09-26T21:29:43.833Z,100.00
2022-09-26T21:32:20.489Z,100.00
2022-09-26T21:34:57.926Z,100.00
2022-09-26T21:37:28.711Z,100.00
2022-09-26T21:39:59.259Z,100.00
2022-09-26T21:42:30.026Z,100.00
2022-09-26T21:45:03.984Z,100.00
2022-09-26T21:47:36.610Z,100.00
2022-09-26T21:50:08.715Z,100.00
2022-09-26T21:52:43.398Z,100.00
2022-09-26T21:55:18.212Z,100.00
2022-09-26T21:57:52.132Z,100.00
2022-09-26T22:00:22.871Z,100.00
2022-09-26T22:02:55.108Z,100.00
2022-09-26T22:05:25.824Z,100.00
2022-09-26T22:07:57.434Z,100.00
2022-09-26T22:10:29.318Z,100.00
2022-09-26T22:13:00.361Z,100.00
2022-09-26T22:15:30.899Z,100.00
2022-09-26T22:18:01.489Z,100.00
2022-09-26T22:20:33.830Z,100.00
2022-09-26T22:23:04.451Z,100.00
2022-09-26T22:25:36.270Z,100.00
2022-09-26T22:28:08.492Z,100.00
2022-09-26T22:30:41.348Z,100.00
2022-09-26T22:33:13.322Z,100.00
2022-09-26T22:35:47.121Z,100.00
2022-09-26T22:38:18.399Z,100.00
2022-09-26T22:40:58.171Z,100.00
2022-09-26T22:43:29.088Z,100.00
2022-09-26T22:46:05.577Z,100.00
2022-09-26T22:48:37.617Z,100.00
2022-09-26T22:51:09.182Z,100.00
2022-09-26T22:53:40.988Z,100.00
2022-09-26T22:56:13.535Z,100.00
2022-09-26T22:58:47.320Z,100.00
2022-09-26T23:01:23.652Z,100.00
2022-09-26T23:03:54.455Z,100.00
2022-09-26T23:06:26.162Z,100.00
2022-09-26T23:08:56.934Z,100.00
2022-09-26T23:11:28.259Z,100.00
2022-09-26T23:13:58.933Z,100.00
2022-09-26T23:16:29.805Z,100.00
2022-09-26T23:19:00.866Z,100.00
2022-09-26T23:21:31.489Z,100.00
2022-09-26T23:24:02.743Z,100.00
2022-09-26T23:26:34.067Z,100.00
2022-09-26T23:29:03.093Z,100.00
2022-09-26T23:31:33.793Z,100.00
2022-09-26T23:34:04.805Z,100.00
2022-09-26T23:36:35.455Z,100.00
2022-09-26T23:39:06.057Z,100.00
2022-09-26T23:41:36.704Z,100.00
2022-09-26T23:44:07.257Z,100.00
2022-09-26T23:46:38.382Z,100.00
2022-09-26T23:49:08.993Z,100.00
2022-09-26T23:51:39.629Z,100.00
2022-09-26T23:54:11.005Z,100.00
2022-09-26T23:56:41.485Z,100.00
2022-09-26T23:59:11.950Z,100.00
